createdAt,value
2018-01-11T00:01:05.438Z,9.90
2018-01-11T00:03:32.865Z,9.67
2018-01-11T00:06:00.328Z,9.57
2018-01-11T00:08:27.792Z,9.93
2018-01-11T00:10:55.255Z,10.47
2018-01-11T00:13:22.714Z,10.40
2018-01-11T00:15:50.158Z,11.13
2018-01-11T00:18:18.371Z,9.67
2018-01-11T00:20:45.819Z,9.63
2018-01-11T00:23:13.286Z,9.93
2018-01-11T00:25:40.722Z,10.23
2018-01-11T00:28:08.972Z,9.80
2018-01-11T00:30:36.413Z,10.10
2018-01-11T00:33:03.879Z,9.67
2018-01-11T00:35:31.352Z,10.17
2018-01-11T00:37:58.817Z,9.80
2018-01-11T00:40:26.276Z,9.80
2018-01-11T00:42:53.755Z,10.00
2018-01-11T00:45:21.220Z,9.50
2018-01-11T00:47:48.667Z,9.13
2018-01-11T00:50:16.113Z,10.50
2018-01-11T00:52:43.567Z,9.80
2018-01-11T00:55:11.029Z,10.07
2018-01-11T00:57:38.476Z,9.50
2018-01-11T01:00:05.956Z,9.87
2018-01-11T01:02:33.403Z,10.03
2018-01-11T01:05:00.867Z,10.13
2018-01-11T01:07:28.322Z,9.93
2018-01-11T01:09:55.803Z,10.43
2018-01-11T01:12:23.261Z,10.53
2018-01-11T01:14:50.710Z,9.70
2018-01-11T01:17:18.179Z,10.40
2018-01-11T01:19:45.651Z,10.07
2018-01-11T01:22:13.120Z,9.83
2018-01-11T01:24:40.565Z,9.40
2018-01-11T01:27:08.011Z,10.60
2018-01-11T01:29:36.242Z,10.00
2018-01-11T01:32:03.705Z,10.27
2018-01-11T01:34:31.184Z,10.57
2018-01-11T01:36:58.634Z,10.00
2018-01-11T01:39:26.095Z,9.90
2018-01-11T01:41:53.546Z,9.87
2018-01-11T01:44:21.759Z,9.70
2018-01-11T01:46:49.206Z,10.23
2018-01-11T01:49:16.663Z,10.97
2018-01-11T01:51:44.881Z,9.93
2018-01-11T01:54:13.094Z,10.63
2018-01-11T01:56:40.549Z,10.13
2018-01-11T01:59:08.016Z,10.23
2018-01-11T02:01:35.486Z,10.53
2018-01-11T02:04:02.943Z,11.37
2018-01-11T02:06:30.398Z,10.63
2018-01-11T02:08:57.944Z,11.53
2018-01-11T02:11:26.172Z,11.87
2018-01-11T02:13:53.635Z,10.97
2018-01-11T02:16:21.098Z,10.70
2018-01-11T02:18:48.546Z,11.27
2018-01-11T02:21:15.997Z,11.43
2018-01-11T02:23:43.473Z,11.73
2018-01-11T02:26:10.924Z,11.27
2018-01-11T02:28:38.378Z,12.07
2018-01-11T02:31:05.841Z,12.00
2018-01-11T02:33:33.285Z,11.77
2018-01-11T02:36:01.522Z,11.97
2018-01-11T02:38:28.974Z,11.70
2018-01-11T02:40:56.441Z,12.17
2018-01-11T02:43:23.881Z,11.73
2018-01-11T02:45:51.350Z,11.90
2018-01-11T02:48:18.786Z,12.67
2018-01-11T02:50:46.274Z,11.83
2018-01-11T02:53:13.732Z,11.73
2018-01-11T02:55:41.191Z,11.63
2018-01-11T02:58:08.640Z,11.63
2018-01-11T03:00:36.864Z,12.13
2018-01-11T03:03:04.335Z,12.17
2018-01-11T03:05:31.792Z,12.57
2018-01-11T03:07:59.252Z,11.73
2018-01-11T03:10:26.702Z,11.77
2018-01-11T03:12:54.147Z,12.10
2018-01-11T03:15:21.621Z,10.73
2018-01-11T03:17:49.077Z,11.47
2018-01-11T03:20:16.532Z,11.83
2018-01-11T03:22:43.995Z,12.73
2018-01-11T03:25:11.458Z,11.43
2018-01-11T03:27:38.938Z,12.20
2018-01-11T03:30:06.406Z,12.67
2018-01-11T03:32:33.858Z,11.77
2018-01-11T03:35:01.322Z,11.37
2018-01-11T03:37:28.762Z,12.20
2018-01-11T03:39:56.427Z,11.73
2018-01-11T03:42:23.922Z,12.27
2018-01-11T03:44:51.391Z,11.80
2018-01-11T03:47:18.840Z,11.90
2018-01-11T03:49:46.297Z,12.27
2018-01-11T03:52:13.742Z,11.83
2018-01-11T03:54:41.201Z,11.37
2018-01-11T03:57:09.440Z,11.30
2018-01-11T03:59:36.907Z,11.47
2018-01-11T04:02:04.354Z,11.63
2018-01-11T04:04:31.818Z,12.20
2018-01-11T04:07:00.054Z,11.63
2018-01-11T04:09:27.501Z,12.30
2018-01-11T04:11:55.726Z,12.33
2018-01-11T04:14:23.175Z,11.37
2018-01-11T04:16:50.637Z,12.07
2018-01-11T04:19:18.101Z,12.23
2018-01-11T04:21:45.623Z,11.40
2018-01-11T04:24:13.006Z,10.90
2018-01-11T04:26:41.236Z,11.90
2018-01-11T04:29:08.712Z,11.37
2018-01-11T04:31:36.178Z,10.77
2018-01-11T04:34:03.641Z,11.40
2018-01-11T04:36:31.112Z,10.70
2018-01-11T04:38:58.555Z,11.03
2018-01-11T04:41:26.017Z,11.70
2018-01-11T04:43:53.474Z,11.60
2018-01-11T04:46:20.938Z,12.03
2018-01-11T04:48:48.398Z,11.30
2018-01-11T04:51:16.621Z,11.70
2018-01-11T04:53:44.829Z,11.57
2018-01-11T04:56:12.307Z,11.23
2018-01-11T04:58:39.764Z,10.77
2018-01-11T05:01:07.207Z,10.73
2018-01-11T05:03:34.664Z,11.50
2018-01-11T05:06:02.114Z,10.93
2018-01-11T05:08:30.354Z,11.03
2018-01-11T05:10:57.821Z,12.03
2018-01-11T05:13:25.274Z,10.60
2018-01-11T05:15:52.713Z,11.13
2018-01-11T05:18:20.163Z,10.93
2018-01-11T05:20:47.614Z,11.53
2018-01-11T05:23:15.847Z,11.37
2018-01-11T05:25:43.298Z,10.90
2018-01-11T05:28:10.768Z,10.97
2018-01-11T05:30:38.218Z,11.97
2018-01-11T05:33:05.692Z,11.37
2018-01-11T05:35:33.139Z,11.70
2018-01-11T05:38:00.602Z,11.00
2018-01-11T05:40:28.059Z,11.60
2018-01-11T05:42:55.543Z,11.37
2018-01-11T05:45:22.974Z,10.97
2018-01-11T05:47:50.437Z,11.43
2018-01-11T05:50:17.907Z,11.90
2018-01-11T05:52:45.355Z,11.50
2018-01-11T05:55:12.813Z,10.67
2018-01-11T05:57:41.323Z,10.93
2018-01-11T06:00:08.770Z,11.13
2018-01-11T06:02:36.434Z,10.97
2018-01-11T06:05:03.883Z,11.27
2018-01-11T06:07:31.562Z,11.53
2018-01-11T06:09:59.026Z,11.03
2018-01-11T06:12:26.489Z,11.97
2018-01-11T06:14:54.693Z,11.77
2018-01-11T06:17:22.156Z,11.07
2018-01-11T06:19:49.603Z,10.43
2018-01-11T06:22:17.067Z,14.90
2018-01-11T06:24:44.495Z,12.40
2018-01-11T06:27:12.705Z,11.10
2018-01-11T06:29:40.150Z,11.27
2018-01-11T06:32:08.354Z,12.30
2018-01-11T06:34:35.796Z,12.13
2018-01-11T06:37:04.544Z,11.90
2018-01-11T06:39:32.753Z,11.23
2018-01-11T06:42:00.958Z,11.67
2018-01-11T06:44:28.397Z,11.37
2018-01-11T06:46:56.603Z,11.53
2018-01-11T06:49:24.050Z,11.80
2018-01-11T06:51:51.503Z,11.70
2018-01-11T06:54:19.703Z,12.30
2018-01-11T06:56:47.176Z,11.30
2018-01-11T06:59:14.637Z,11.57
2018-01-11T07:01:42.069Z,11.10
2018-01-11T07:04:10.291Z,11.60
2018-01-11T07:06:37.739Z,12.27
2018-01-11T07:09:05.179Z,11.67
2018-01-11T07:11:33.389Z,11.30
2018-01-11T07:14:00.835Z,12.03
2018-01-11T07:16:28.286Z,11.97
2018-01-11T07:18:56.482Z,11.67
2018-01-11T07:21:23.926Z,12.23
2018-01-11T07:23:52.139Z,11.83
2018-01-11T07:26:19.574Z,11.70
2018-01-11T07:28:47.780Z,12.30
2018-01-11T07:31:15.218Z,12.20
2018-01-11T07:33:42.649Z,12.00
2018-01-11T07:36:10.107Z,12.07
2018-01-11T07:38:37.534Z,12.10
2018-01-11T07:41:04.984Z,11.93
2018-01-11T07:43:32.427Z,12.97
2018-01-11T07:46:00.629Z,12.40
2018-01-11T07:48:28.057Z,11.37
2018-01-11T07:50:56.279Z,12.70
2018-01-11T07:53:23.725Z,12.73
2018-01-11T07:55:51.179Z,12.47
2018-01-11T07:58:18.634Z,12.63
2018-01-11T08:00:46.841Z,12.50
2018-01-11T08:03:14.277Z,12.83
2018-01-11T08:05:41.735Z,12.30
2018-01-11T08:08:09.951Z,12.90
2018-01-11T08:10:37.392Z,13.03
2018-01-11T08:13:04.837Z,13.57
2018-01-11T08:15:33.043Z,12.70
2018-01-11T08:18:00.488Z,12.30
2018-01-11T08:20:28.690Z,12.53
2018-01-11T08:22:56.113Z,12.77
2018-01-11T08:25:24.323Z,13.03
2018-01-11T08:27:51.780Z,12.53
2018-01-11T08:30:19.226Z,12.43
2018-01-11T08:32:47.428Z,13.67
2018-01-11T08:35:14.866Z,12.77
2018-01-11T08:37:43.083Z,12.90
2018-01-11T08:40:10.536Z,13.37
2018-01-11T08:42:37.978Z,13.47
2018-01-11T08:45:05.431Z,13.67
2018-01-11T08:47:33.659Z,14.53
2018-01-11T08:50:01.099Z,15.30
2018-01-11T08:52:28.541Z,15.17
2018-01-11T08:54:56.751Z,14.87
2018-01-11T08:57:24.204Z,15.23
2018-01-11T08:59:51.630Z,14.93
2018-01-11T09:02:19.840Z,14.47
2018-01-11T09:04:47.273Z,14.13
2018-01-11T09:07:15.487Z,14.10
2018-01-11T09:09:42.935Z,15.17
2018-01-11T09:12:11.139Z,16.07
2018-01-11T09:14:38.579Z,14.17
2018-01-11T09:17:06.038Z,14.43
2018-01-11T09:19:34.238Z,15.60
2018-01-11T09:22:01.675Z,15.23
2018-01-11T09:24:29.891Z,15.67
2018-01-11T09:26:57.354Z,15.33
2018-01-11T09:29:24.796Z,16.30
2018-01-11T09:31:52.225Z,15.47
2018-01-11T09:34:19.666Z,15.63
2018-01-11T09:36:47.106Z,15.73
2018-01-11T09:39:14.548Z,16.40
2018-01-11T09:41:41.982Z,15.87
2018-01-11T09:44:10.196Z,15.33
2018-01-11T09:46:37.631Z,15.90
2018-01-11T09:49:05.919Z,16.03
2018-01-11T09:51:34.116Z,16.43
2018-01-11T09:54:01.551Z,15.57
2018-01-11T09:56:29.764Z,16.17
2018-01-11T09:58:57.210Z,15.27
2018-01-11T10:01:24.646Z,16.33
2018-01-11T10:03:52.092Z,15.50
2018-01-11T10:06:19.522Z,15.57
2018-01-11T10:08:46.986Z,16.00
2018-01-11T10:11:14.422Z,15.13
2018-01-11T10:13:41.881Z,15.20
2018-01-11T10:16:10.074Z,15.67
2018-01-11T10:18:37.514Z,17.17
2018-01-11T10:21:05.726Z,16.13
2018-01-11T10:23:33.166Z,16.23
2018-01-11T10:26:00.619Z,15.20
2018-01-11T10:28:28.836Z,15.67
2018-01-11T10:30:56.286Z,14.80
2018-01-11T10:33:23.747Z,16.57
2018-01-11T10:35:51.178Z,15.60
2018-01-11T10:38:19.390Z,16.60
2018-01-11T10:40:46.817Z,17.07
2018-01-11T10:43:15.030Z,16.63
2018-01-11T10:45:42.496Z,16.53
2018-01-11T10:48:09.936Z,16.60
2018-01-11T10:50:38.141Z,16.93
2018-01-11T10:53:05.592Z,15.57
2018-01-11T10:55:33.020Z,16.97
2018-01-11T10:58:00.450Z,22.10
2018-01-11T11:00:42.776Z,18.07
2018-01-11T11:03:10.214Z,17.20
2018-01-11T11:05:37.658Z,17.57
2018-01-11T11:08:05.126Z,17.53
2018-01-11T11:10:32.546Z,16.93
2018-01-11T11:13:00.758Z,18.03
2018-01-11T11:15:28.214Z,17.73
2018-01-11T11:17:55.637Z,17.60
2018-01-11T11:20:23.083Z,17.03
2018-01-11T11:22:50.528Z,18.50
2018-01-11T11:25:17.982Z,17.43
2018-01-11T11:27:45.432Z,18.43
2018-01-11T11:30:12.850Z,17.67
2018-01-11T11:32:41.058Z,17.83
2018-01-11T11:35:08.511Z,17.07
2018-01-11T11:37:36.706Z,18.30
2018-01-11T11:40:04.137Z,17.73
2018-01-11T11:42:32.357Z,17.30
2018-01-11T11:44:59.777Z,19.57
2018-01-11T11:47:28.003Z,19.10
2018-01-11T11:49:55.455Z,18.83
2018-01-11T11:52:22.899Z,17.40
2018-01-11T11:54:51.097Z,19.60
2018-01-11T11:57:18.540Z,17.97
2018-01-11T11:59:46.747Z,18.07
2018-01-11T12:04:47.592Z,17.57
2018-01-11T12:07:15.029Z,18.63
2018-01-11T12:09:43.242Z,19.20
2018-01-11T12:12:10.678Z,18.70
2018-01-11T12:14:38.890Z,18.40
2018-01-11T12:17:06.326Z,18.13
2018-01-11T12:19:33.780Z,19.43
2018-01-11T12:22:01.995Z,19.07
2018-01-11T12:24:29.454Z,19.70
2018-01-11T12:26:56.894Z,18.57
2018-01-11T12:29:25.108Z,20.43
2018-01-11T12:31:52.553Z,20.70
2018-01-11T12:34:19.983Z,20.53
2018-01-11T12:36:47.422Z,19.53
2018-01-11T12:39:14.857Z,20.73
2018-01-11T12:41:42.302Z,20.80
2018-01-11T12:44:09.735Z,21.67
2018-01-11T12:46:37.936Z,21.47
2018-01-11T12:49:05.378Z,21.53
2018-01-11T12:51:33.591Z,20.90
2018-01-11T12:54:01.018Z,23.33
2018-01-11T12:56:29.227Z,22.40
2018-01-11T12:58:56.654Z,21.37
2018-01-11T13:01:24.087Z,21.77
2018-01-11T13:03:51.530Z,28.70
2018-01-11T13:06:18.980Z,23.33
2018-01-11T13:08:46.413Z,22.67
2018-01-11T13:11:14.617Z,23.00
2018-01-11T13:13:42.067Z,22.30
2018-01-11T13:16:09.493Z,23.80
2018-01-11T13:18:36.955Z,24.60
2018-01-11T13:21:04.396Z,24.43
2018-01-11T13:23:31.839Z,25.67
2018-01-11T13:25:59.300Z,25.50
2018-01-11T13:28:26.743Z,25.37
2018-01-11T13:30:54.183Z,26.30
2018-01-11T13:33:21.622Z,23.80
2018-01-11T13:35:49.076Z,27.43
2018-01-11T13:38:16.510Z,24.90
2018-01-11T13:40:43.945Z,25.43
2018-01-11T13:43:12.154Z,22.70
2018-01-11T13:45:39.607Z,24.77
2018-01-11T13:48:07.051Z,25.43
2018-01-11T13:50:35.253Z,24.87
2018-01-11T13:53:02.732Z,25.07
2018-01-11T13:55:30.146Z,24.60
2018-01-11T13:57:58.363Z,22.63
2018-01-11T14:00:25.790Z,24.90
2018-01-11T14:02:54.013Z,22.47
2018-01-11T14:05:21.448Z,23.23
2018-01-11T14:07:48.896Z,23.30
2018-01-11T14:10:17.120Z,25.57
2018-01-11T14:12:44.563Z,25.07
2018-01-11T14:15:11.989Z,27.80
2018-01-11T14:17:40.217Z,25.53
2018-01-11T14:20:07.695Z,23.23
2018-01-11T14:22:35.906Z,24.67
2018-01-11T14:25:03.342Z,24.37
2018-01-11T14:27:31.572Z,24.53
2018-01-11T14:29:59.774Z,22.77
2018-01-11T14:32:27.215Z,23.17
2018-01-11T14:34:55.422Z,24.60
2018-01-11T14:37:22.880Z,24.23
2018-01-11T14:39:50.314Z,23.63
2018-01-11T14:42:18.524Z,22.23
2018-01-11T14:44:45.969Z,23.80
2018-01-11T14:47:13.409Z,22.40
2018-01-11T14:49:40.859Z,22.93
2018-01-11T14:52:08.340Z,22.83
2018-01-11T14:54:36.545Z,21.83
2018-01-11T14:57:03.967Z,21.93
2018-01-11T14:59:31.411Z,21.40
2018-01-11T15:01:58.845Z,21.17
2018-01-11T15:04:26.296Z,21.20
2018-01-11T15:06:53.725Z,22.07
2018-01-11T15:09:21.937Z,20.83
2018-01-11T15:11:49.396Z,19.70
2018-01-11T15:14:17.596Z,20.97
2018-01-11T15:16:45.032Z,21.20
2018-01-11T15:19:12.474Z,21.53
2018-01-11T15:21:40.683Z,20.53
2018-01-11T15:24:08.145Z,21.43
2018-01-11T15:26:35.581Z,20.87
2018-01-11T15:29:03.793Z,20.13
2018-01-11T15:31:31.235Z,20.57
2018-01-11T15:33:59.440Z,19.07
2018-01-11T15:36:27.719Z,19.97
2018-01-11T15:38:55.184Z,20.00
2018-01-11T15:41:22.631Z,19.23
2018-01-11T15:43:50.078Z,20.70
2018-01-11T15:46:18.297Z,19.60
2018-01-11T15:48:45.756Z,20.53
2018-01-11T15:51:13.235Z,19.87
2018-01-11T15:53:40.808Z,20.07
2018-01-11T15:56:08.263Z,19.93
2018-01-11T15:58:35.726Z,18.83
2018-01-11T16:01:03.189Z,18.07
2018-01-11T16:03:30.642Z,18.70
2018-01-11T16:05:58.109Z,19.50
2018-01-11T16:08:25.584Z,18.47
2018-01-11T16:10:53.811Z,18.87
2018-01-11T16:13:22.033Z,18.57
2018-01-11T16:15:49.498Z,18.57
2018-01-11T16:18:16.959Z,19.27
2018-01-11T16:20:44.430Z,18.50
2018-01-11T16:23:11.890Z,17.13
2018-01-11T16:25:39.364Z,19.20
2018-01-11T16:28:06.813Z,18.37
2018-01-11T16:30:34.271Z,17.97
2018-01-11T16:33:01.732Z,17.67
2018-01-11T16:35:29.181Z,17.47
2018-01-11T16:37:56.648Z,17.63
2018-01-11T16:40:24.099Z,17.87
2018-01-11T16:42:51.652Z,17.87
2018-01-11T16:45:19.111Z,18.13
2018-01-11T16:47:46.569Z,16.93
2018-01-11T16:50:14.787Z,18.13
2018-01-11T16:52:42.255Z,17.63
2018-01-11T16:55:09.695Z,17.53
2018-01-11T16:57:37.160Z,16.47
2018-01-11T17:00:05.375Z,16.57
2018-01-11T17:02:32.867Z,16.93
2018-01-11T17:05:00.283Z,17.43
2018-01-11T17:07:27.747Z,16.40
2018-01-11T17:09:55.197Z,16.57
2018-01-11T17:12:22.655Z,17.33
2018-01-11T17:14:50.112Z,17.43
2018-01-11T17:17:17.574Z,18.43
2018-01-11T17:19:45.033Z,15.97
2018-01-11T17:22:13.259Z,19.03
2018-01-11T17:24:40.702Z,17.83
2018-01-11T17:27:08.149Z,18.33
2018-01-11T17:29:35.619Z,18.53
2018-01-11T17:32:03.081Z,17.17
2018-01-11T17:34:30.529Z,17.63
2018-01-11T17:36:57.998Z,17.43
2018-01-11T17:39:25.459Z,18.63
2018-01-11T17:41:52.921Z,19.47
2018-01-11T17:44:20.395Z,18.37
2018-01-11T17:46:47.854Z,19.10
2018-01-11T17:49:15.344Z,18.87
2018-01-11T17:51:43.564Z,18.13
2018-01-11T17:54:11.788Z,18.90
2018-01-11T17:56:39.254Z,17.87
2018-01-11T17:59:06.711Z,18.90
2018-01-11T18:01:34.182Z,18.50
2018-01-11T18:04:01.634Z,17.80
2018-01-11T18:06:29.097Z,18.60
2018-01-11T18:08:56.581Z,18.27
2018-01-11T18:11:24.113Z,17.53
2018-01-11T18:13:51.591Z,18.70
2018-01-11T18:16:19.063Z,17.57
2018-01-11T18:18:46.529Z,17.30
2018-01-11T18:21:14.031Z,18.33
2018-01-11T18:23:42.262Z,16.90
2018-01-11T18:26:09.756Z,18.93
2018-01-11T18:28:37.198Z,18.03
2018-01-11T18:31:05.556Z,18.23
2018-01-11T18:33:33.000Z,19.77
2018-01-11T18:36:01.241Z,18.87
2018-01-11T18:38:29.472Z,19.53
2018-01-11T18:40:56.913Z,18.27
2018-01-11T18:43:25.119Z,19.43
2018-01-11T18:45:52.595Z,19.00
2018-01-11T18:48:20.059Z,19.33
2018-01-11T18:50:47.511Z,18.50
2018-01-11T18:53:14.972Z,18.93
2018-01-11T18:55:42.444Z,19.30
2018-01-11T18:58:09.894Z,19.17
2018-01-11T19:00:37.355Z,18.87
2018-01-11T19:03:04.816Z,19.23
2018-01-11T19:05:32.285Z,19.33
2018-01-11T19:07:59.757Z,19.20
2018-01-11T19:10:28.767Z,20.50
2018-01-11T19:12:56.201Z,19.47
2018-01-11T19:15:23.651Z,20.40
2018-01-11T19:17:51.134Z,20.50
2018-01-11T19:20:18.596Z,19.53
2018-01-11T19:22:46.051Z,19.83
2018-01-11T19:25:13.507Z,19.70
2018-01-11T19:27:41.736Z,19.23
2018-01-11T19:30:09.174Z,19.40
2018-01-11T19:32:36.605Z,19.50
2018-01-11T19:35:04.083Z,20.47
2018-01-11T19:37:31.560Z,19.60
2018-01-11T19:39:59.011Z,20.80
2018-01-11T19:42:26.471Z,19.67
2018-01-11T19:44:53.917Z,19.73
2018-01-11T19:47:22.146Z,19.73
2018-01-11T19:49:50.374Z,19.83
2018-01-11T19:52:18.586Z,20.20
2018-01-11T19:54:46.041Z,19.43
2018-01-11T19:57:13.492Z,18.27
2018-01-11T19:59:40.973Z,19.33
2018-01-11T20:02:08.425Z,20.30
2018-01-11T20:04:35.895Z,20.40
2018-01-11T20:07:03.343Z,19.63
2018-01-11T20:09:30.807Z,20.07
2018-01-11T20:11:58.277Z,20.00
2018-01-11T20:14:25.737Z,20.43
2018-01-11T20:16:53.189Z,20.13
2018-01-11T20:19:20.645Z,20.80
2018-01-11T20:21:48.867Z,20.03
2018-01-11T20:24:16.324Z,19.87
2018-01-11T20:26:43.771Z,20.33
2018-01-11T20:29:11.231Z,21.33
2018-01-11T20:31:38.655Z,20.33
2018-01-11T20:34:06.144Z,22.07
2018-01-11T20:36:33.612Z,20.93
2018-01-11T20:39:01.066Z,20.47
2018-01-11T20:41:28.569Z,20.70
2018-01-11T20:43:56.762Z,21.10
2018-01-11T20:46:24.207Z,21.23
2018-01-11T20:48:51.665Z,21.57
2018-01-11T20:51:19.126Z,20.57
2018-01-11T20:53:46.586Z,20.50
2018-01-11T20:56:14.043Z,21.23
2018-01-11T20:58:41.482Z,20.53
2018-01-11T21:01:09.725Z,20.80
2018-01-11T21:03:37.163Z,20.47
2018-01-11T21:06:05.383Z,21.17
2018-01-11T21:08:32.829Z,20.27
2018-01-11T21:11:00.323Z,20.50
2018-01-11T21:13:28.537Z,20.97
2018-01-11T21:15:56.012Z,21.17
2018-01-11T21:18:23.468Z,19.53
2018-01-11T21:20:50.910Z,20.00
2018-01-11T21:23:18.384Z,19.50
2018-01-11T21:25:45.842Z,20.03
2018-01-11T21:28:13.304Z,21.00
2018-01-11T21:30:40.753Z,21.00
2018-01-11T21:33:08.207Z,20.00
2018-01-11T21:35:36.426Z,19.60
2018-01-11T21:38:03.862Z,20.50
2018-01-11T21:40:31.310Z,20.30
2018-01-11T21:42:59.531Z,21.00
2018-01-11T21:45:26.987Z,21.27
2018-01-11T21:47:54.459Z,19.87
2018-01-11T21:50:21.920Z,20.23
2018-01-11T21:52:49.365Z,20.83
2018-01-11T21:55:16.820Z,20.07
2018-01-11T21:57:44.274Z,20.53
2018-01-11T22:00:11.723Z,19.20
2018-01-11T22:02:39.935Z,19.43
2018-01-11T22:05:07.394Z,19.60
2018-01-11T22:07:34.834Z,19.10
2018-01-11T22:10:03.074Z,20.27
2018-01-11T22:12:30.528Z,19.47
2018-01-11T22:14:57.979Z,19.40
2018-01-11T22:17:25.430Z,19.37
2018-01-11T22:19:52.882Z,20.50
2018-01-11T22:22:20.334Z,19.37
2018-01-11T22:24:47.778Z,20.17
2018-01-11T22:27:16.001Z,19.50
2018-01-11T22:29:43.452Z,19.73
2018-01-11T22:32:10.909Z,18.83
2018-01-11T22:34:38.350Z,19.40
2018-01-11T22:37:06.557Z,19.23
2018-01-11T22:39:34.057Z,20.17
2018-01-11T22:42:01.487Z,19.87
2018-01-11T22:44:28.942Z,18.63
2018-01-11T22:46:56.398Z,19.63
2018-01-11T22:49:24.615Z,18.97
2018-01-11T22:51:52.057Z,18.80
2018-01-11T22:54:19.491Z,18.77
2018-01-11T22:56:47.710Z,18.93
2018-01-11T22:59:15.156Z,20.83
2018-01-11T23:01:42.610Z,20.20
2018-01-11T23:04:10.056Z,20.47
2018-01-11T23:06:38.278Z,19.83
2018-01-11T23:09:05.718Z,21.70
2018-01-11T23:11:38.890Z,19.27
2018-01-11T23:14:07.118Z,21.37
2018-01-11T23:16:34.560Z,20.63
2018-01-11T23:19:02.017Z,19.97
2018-01-11T23:21:29.471Z,19.70
2018-01-11T23:23:56.917Z,20.87
2018-01-11T23:26:25.119Z,20.87
2018-01-11T23:28:52.573Z,20.23
2018-01-11T23:31:20.052Z,19.90
2018-01-11T23:33:47.502Z,19.57
2018-01-11T23:36:14.956Z,21.00
2018-01-11T23:38:43.169Z,21.90
2018-01-11T23:41:10.622Z,19.47
2018-01-11T23:43:38.082Z,19.73
2018-01-11T23:46:05.546Z,18.73
2018-01-11T23:48:33.008Z,19.53
2018-01-11T23:51:00.474Z,19.47
2018-01-11T23:53:27.936Z,20.53
2018-01-11T23:55:55.408Z,20.73
2018-01-11T23:58:22.863Z,20.03
